createdAt,value
2023-03-07T00:00:12.513Z,23.57
2023-03-07T00:02:39.002Z,23.54
2023-03-07T00:05:05.515Z,23.51
2023-03-07T00:07:31.849Z,23.47
2023-03-07T00:09:58.364Z,23.44
2023-03-07T00:12:24.667Z,23.42
2023-03-07T00:14:50.984Z,23.43
2023-03-07T00:17:17.548Z,23.42
2023-03-07T00:19:43.850Z,23.41
2023-03-07T00:22:10.946Z,23.38
2023-03-07T00:24:38.196Z,23.37
2023-03-07T00:27:04.619Z,23.36
2023-03-07T00:29:30.940Z,23.32
2023-03-07T00:31:57.261Z,23.29
2023-03-07T00:34:23.905Z,23.28
2023-03-07T00:36:50.283Z,23.25
2023-03-07T00:39:16.664Z,23.23
2023-03-07T00:41:42.985Z,23.20
2023-03-07T00:44:09.377Z,23.15
2023-03-07T00:46:35.694Z,23.13
2023-03-07T00:49:02.029Z,23.09
2023-03-07T00:51:28.368Z,23.03
2023-03-07T00:53:54.729Z,23.04
2023-03-07T00:56:24.762Z,23.01
2023-03-07T00:58:51.143Z,23.02
2023-03-07T01:01:18.368Z,23.01
2023-03-07T01:03:44.699Z,23.01
2023-03-07T01:06:14.349Z,22.99
2023-03-07T01:08:40.964Z,22.96
2023-03-07T01:11:07.289Z,22.94
2023-03-07T01:13:33.811Z,22.89
2023-03-07T01:16:09.075Z,22.86
2023-03-07T01:18:35.447Z,22.83
2023-03-07T01:21:01.765Z,22.80
2023-03-07T01:23:28.086Z,22.77
2023-03-07T01:25:54.387Z,22.75
2023-03-07T01:28:20.717Z,22.74
2023-03-07T01:30:56.047Z,22.70
2023-03-07T01:33:22.370Z,22.69
2023-03-07T01:35:48.700Z,22.71
2023-03-07T01:38:15.024Z,22.70
2023-03-07T01:40:41.331Z,22.73
2023-03-07T01:43:23.339Z,22.73
2023-03-07T01:45:49.663Z,22.74
2023-03-07T01:48:16.254Z,22.71
2023-03-07T01:50:42.584Z,22.69
2023-03-07T01:53:09.225Z,22.68
2023-03-07T01:55:35.572Z,22.65
2023-03-07T01:58:12.972Z,22.63
2023-03-07T02:00:40.203Z,22.60
2023-03-07T02:03:09.217Z,22.57
2023-03-07T02:05:38.071Z,22.54
2023-03-07T02:08:04.392Z,22.54
2023-03-07T02:10:30.926Z,22.52
2023-03-07T02:12:57.697Z,22.49
2023-03-07T02:15:24.290Z,22.48
2023-03-07T02:17:50.848Z,22.47
2023-03-07T02:20:29.324Z,22.44
2023-03-07T02:22:55.888Z,22.41
2023-03-07T02:25:28.744Z,22.41
2023-03-07T02:27:55.283Z,22.40
2023-03-07T02:30:21.599Z,22.39
2023-03-07T02:32:47.907Z,22.38
2023-03-07T02:35:20.845Z,22.35
2023-03-07T02:37:47.303Z,22.33
2023-03-07T02:40:14.410Z,22.31
2023-03-07T02:42:41.094Z,22.29
2023-03-07T02:45:10.023Z,22.29
2023-03-07T02:47:36.670Z,22.29
2023-03-07T02:50:03.274Z,22.29
2023-03-07T02:52:29.806Z,22.28
2023-03-07T02:54:56.230Z,22.28
2023-03-07T02:57:22.553Z,22.28
2023-03-07T02:59:48.900Z,22.29
2023-03-07T03:02:15.213Z,22.27
2023-03-07T03:04:41.630Z,22.26
2023-03-07T03:07:07.970Z,22.25
2023-03-07T03:09:34.315Z,22.22
2023-03-07T03:12:00.691Z,22.20
2023-03-07T03:14:27.079Z,22.17
2023-03-07T03:16:53.453Z,22.15
2023-03-07T03:19:19.833Z,22.17
2023-03-07T03:21:46.138Z,22.16
2023-03-07T03:24:12.463Z,22.20
2023-03-07T03:26:38.817Z,22.17
2023-03-07T03:29:05.208Z,22.16
2023-03-07T03:31:32.071Z,22.15
2023-03-07T03:33:58.588Z,22.14
2023-03-07T03:36:28.274Z,22.12
2023-03-07T03:38:55.171Z,22.10
2023-03-07T03:41:21.494Z,22.08
2023-03-07T03:43:48.080Z,22.08
2023-03-07T03:46:14.436Z,22.10
2023-03-07T03:48:40.827Z,22.10
2023-03-07T03:51:15.853Z,22.09
2023-03-07T03:53:42.221Z,22.08
2023-03-07T03:56:12.212Z,22.06
2023-03-07T03:58:38.573Z,22.02
2023-03-07T04:01:05.886Z,22.00
2023-03-07T04:03:35.649Z,21.98
2023-03-07T04:06:05.717Z,21.95
2023-03-07T04:08:32.190Z,21.93
2023-03-07T04:10:58.679Z,21.97
2023-03-07T04:13:25.092Z,22.00
2023-03-07T04:15:52.190Z,21.97
2023-03-07T04:18:18.730Z,21.95
2023-03-07T04:20:45.076Z,21.95
2023-03-07T04:23:11.615Z,21.95
2023-03-07T04:25:37.969Z,21.94
2023-03-07T04:28:04.287Z,21.93
2023-03-07T04:30:31.008Z,21.93
2023-03-07T04:32:57.319Z,21.91
2023-03-07T04:35:23.708Z,21.90
2023-03-07T04:37:50.612Z,21.88
2023-03-07T04:40:16.948Z,21.88
2023-03-07T04:42:43.293Z,21.87
2023-03-07T04:45:09.811Z,21.87
2023-03-07T04:47:36.127Z,21.88
2023-03-07T04:50:02.558Z,21.90
2023-03-07T04:52:28.863Z,21.89
2023-03-07T04:54:55.185Z,21.88
2023-03-07T04:57:21.487Z,21.86
2023-03-07T04:59:47.822Z,21.86
2023-03-07T05:02:14.190Z,21.85
2023-03-07T05:04:40.656Z,21.84
2023-03-07T05:07:07.064Z,21.82
2023-03-07T05:09:33.374Z,21.79
2023-03-07T05:11:59.931Z,21.77
2023-03-07T05:14:26.261Z,21.71
2023-03-07T05:16:52.854Z,21.68
2023-03-07T05:19:19.174Z,21.70
2023-03-07T05:21:47.502Z,21.72
2023-03-07T05:24:13.813Z,21.71
2023-03-07T05:26:40.687Z,21.72
2023-03-07T05:29:07.112Z,21.72
2023-03-07T05:31:33.517Z,21.71
2023-03-07T05:33:59.849Z,21.71
2023-03-07T05:36:26.472Z,21.69
2023-03-07T05:38:54.647Z,21.68
2023-03-07T05:41:20.969Z,21.67
2023-03-07T05:43:47.277Z,21.66
2023-03-07T05:46:13.937Z,21.65
2023-03-07T05:48:40.273Z,21.63
2023-03-07T05:51:06.621Z,21.65
2023-03-07T05:53:33.016Z,21.63
2023-03-07T05:55:59.345Z,21.62
2023-03-07T05:58:25.659Z,21.62
2023-03-07T06:00:51.992Z,21.63
2023-03-07T06:03:18.337Z,21.61
2023-03-07T06:05:44.672Z,21.61
2023-03-07T06:08:11.013Z,21.60
2023-03-07T06:10:40.031Z,21.60
2023-03-07T06:13:06.466Z,21.60
2023-03-07T06:15:32.841Z,21.57
2023-03-07T06:17:59.332Z,21.56
2023-03-07T06:20:25.661Z,21.54
2023-03-07T06:22:52.032Z,21.53
2023-03-07T06:25:21.581Z,21.51
2023-03-07T06:27:48.362Z,21.52
2023-03-07T06:30:14.706Z,21.50
2023-03-07T06:32:41.385Z,21.48
2023-03-07T06:35:07.961Z,21.47
2023-03-07T06:37:34.287Z,21.47
2023-03-07T06:40:00.855Z,21.48
2023-03-07T06:42:27.171Z,21.46
2023-03-07T06:44:53.501Z,21.50
2023-03-07T06:47:19.839Z,21.49
2023-03-07T06:49:46.167Z,21.49
2023-03-07T06:52:12.508Z,21.49
2023-03-07T06:54:39.063Z,21.48
2023-03-07T06:57:05.385Z,21.47
2023-03-07T06:59:31.773Z,21.46
2023-03-07T07:01:58.205Z,21.46
2023-03-07T07:04:24.626Z,21.44
2023-03-07T07:06:50.957Z,21.44
2023-03-07T07:09:17.276Z,21.42
2023-03-07T07:11:43.599Z,21.43
2023-03-07T07:14:09.914Z,21.41
2023-03-07T07:16:36.497Z,21.40
2023-03-07T07:19:03.132Z,21.38
2023-03-07T07:21:29.469Z,21.36
2023-03-07T07:23:56.369Z,21.37
2023-03-07T07:26:23.203Z,21.37
2023-03-07T07:28:49.548Z,21.37
2023-03-07T07:31:16.013Z,21.34
2023-03-07T07:33:42.528Z,21.37
2023-03-07T07:36:08.984Z,21.39
2023-03-07T07:38:35.491Z,21.46
2023-03-07T07:41:02.296Z,21.49
2023-03-07T07:43:29.639Z,21.52
2023-03-07T07:45:56.019Z,21.53
2023-03-07T07:48:22.368Z,21.56
2023-03-07T07:50:48.685Z,21.68
2023-03-07T07:53:17.018Z,21.76
2023-03-07T07:55:43.330Z,21.90
2023-03-07T07:58:09.660Z,22.03
2023-03-07T08:00:37.704Z,21.98
2023-03-07T08:03:05.582Z,22.00
2023-03-07T08:05:31.925Z,22.00
2023-03-07T08:07:58.239Z,21.86
2023-03-07T08:10:24.873Z,21.84
2023-03-07T08:12:54.220Z,21.81
2023-03-07T08:15:21.487Z,21.84
2023-03-07T08:17:48.750Z,21.77
2023-03-07T08:20:15.074Z,21.78
2023-03-07T08:22:41.427Z,21.76
2023-03-07T08:25:17.635Z,21.80
2023-03-07T08:27:43.948Z,21.80
2023-03-07T08:30:10.573Z,21.83
2023-03-07T08:32:36.908Z,21.81
2023-03-07T08:35:04.007Z,21.78
2023-03-07T08:37:30.323Z,21.78
2023-03-07T08:39:56.639Z,21.77
2023-03-07T08:42:23.035Z,21.72
2023-03-07T08:44:49.390Z,21.69
2023-03-07T08:47:15.706Z,21.75
2023-03-07T08:49:42.021Z,21.77
2023-03-07T08:52:08.353Z,21.77
2023-03-07T08:54:34.706Z,21.75
2023-03-07T08:57:01.273Z,21.72
2023-03-07T08:59:27.624Z,21.66
2023-03-07T09:01:54.820Z,21.71
2023-03-07T09:04:21.836Z,21.75
2023-03-07T09:06:50.492Z,21.81
2023-03-07T09:09:16.800Z,21.84
2023-03-07T09:11:43.361Z,21.87
2023-03-07T09:14:09.734Z,21.88
2023-03-07T09:16:36.080Z,21.87
2023-03-07T09:19:02.476Z,21.88
2023-03-07T09:21:28.811Z,21.87
2023-03-07T09:23:55.121Z,21.86
2023-03-07T09:26:21.551Z,21.86
2023-03-07T09:28:47.896Z,21.86
2023-03-07T09:31:14.315Z,21.84
2023-03-07T09:33:40.702Z,21.86
2023-03-07T09:36:07.571Z,21.84
2023-03-07T09:38:34.009Z,21.85
2023-03-07T09:41:23.342Z,21.83
2023-03-07T09:44:09.868Z,21.84
2023-03-07T09:46:45.238Z,21.86
2023-03-07T09:49:21.181Z,21.86
2023-03-07T09:51:50.755Z,21.88
2023-03-07T09:54:20.677Z,21.87
2023-03-07T09:56:54.433Z,21.87
2023-03-07T09:59:33.522Z,21.87
2023-03-07T10:02:12.866Z,21.86
2023-03-07T10:04:42.243Z,21.84
2023-03-07T10:07:08.940Z,21.81
2023-03-07T10:09:35.258Z,21.78
2023-03-07T10:12:10.954Z,21.77
2023-03-07T10:14:43.433Z,21.83
2023-03-07T10:17:22.978Z,21.85
2023-03-07T10:19:50.113Z,21.87
2023-03-07T10:22:18.945Z,21.86
2023-03-07T10:24:51.434Z,21.87
2023-03-07T10:27:17.754Z,21.86
2023-03-07T10:29:43.971Z,21.86
2023-03-07T10:32:29.831Z,21.87
2023-03-07T10:35:11.567Z,21.97
2023-03-07T10:37:43.924Z,22.04
2023-03-07T10:40:30.739Z,22.11
2023-03-07T10:42:57.106Z,22.18
2023-03-07T10:45:25.744Z,22.23
2023-03-07T10:47:52.042Z,22.32
2023-03-07T10:50:23.526Z,22.40
2023-03-07T10:52:53.787Z,22.50
2023-03-07T10:55:32.167Z,22.60
2023-03-07T10:58:14.747Z,22.64
2023-03-07T11:00:41.446Z,22.65
2023-03-07T11:03:27.215Z,22.68
2023-03-07T11:05:53.535Z,22.69
2023-03-07T11:08:20.759Z,22.69
2023-03-07T11:10:47.268Z,22.70
2023-03-07T11:13:17.187Z,22.71
2023-03-07T11:15:45.143Z,22.62
2023-03-07T11:18:30.397Z,22.62
2023-03-07T11:20:56.738Z,22.58
2023-03-07T11:23:24.065Z,22.55
2023-03-07T11:25:50.870Z,22.57
2023-03-07T11:28:23.294Z,22.66
2023-03-07T11:30:51.321Z,22.73
2023-03-07T11:33:20.725Z,22.82
2023-03-07T11:35:55.394Z,22.81
2023-03-07T11:38:29.909Z,22.83
2023-03-07T11:41:04.867Z,22.84
2023-03-07T11:43:41.366Z,22.85
2023-03-07T11:46:10.127Z,22.82
2023-03-07T11:48:52.479Z,22.76
2023-03-07T11:51:41.156Z,22.68
2023-03-07T11:54:25.644Z,22.67
2023-03-07T11:56:52.209Z,22.66
2023-03-07T11:59:37.411Z,22.75
2023-03-07T12:02:05.250Z,22.75
2023-03-07T12:04:38.607Z,22.74
2023-03-07T12:07:23.785Z,22.65
2023-03-07T12:09:54.387Z,22.49
2023-03-07T12:12:29.700Z,22.52
2023-03-07T12:14:55.943Z,22.57
2023-03-07T12:17:45.593Z,22.58
2023-03-07T12:20:25.964Z,22.57
2023-03-07T12:22:59.329Z,22.54
2023-03-07T12:25:31.651Z,22.52
2023-03-07T12:28:05.810Z,22.49
2023-03-07T12:30:50.802Z,22.45
2023-03-07T12:33:27.437Z,22.40
2023-03-07T12:35:55.325Z,22.39
2023-03-07T12:38:27.646Z,22.36
2023-03-07T12:41:01.768Z,22.41
2023-03-07T12:43:28.030Z,22.50
2023-03-07T12:46:14.565Z,22.56
2023-03-07T12:48:43.232Z,22.59
2023-03-07T12:51:11.332Z,22.63
2023-03-07T12:53:47.901Z,22.62
2023-03-07T12:56:27.974Z,22.58
2023-03-07T12:58:56.168Z,22.57
2023-03-07T13:01:27.295Z,22.56
2023-03-07T13:03:53.735Z,22.55
2023-03-07T13:06:20.490Z,22.55
2023-03-07T13:08:47.802Z,22.55
2023-03-07T13:11:18.211Z,22.59
2023-03-07T13:13:44.531Z,22.63
2023-03-07T13:16:11.314Z,22.65
2023-03-07T13:18:37.662Z,22.71
2023-03-07T13:21:22.636Z,22.75
2023-03-07T13:23:48.952Z,22.80
2023-03-07T13:26:15.681Z,22.71
2023-03-07T13:28:43.098Z,22.61
2023-03-07T13:31:15.253Z,22.54
2023-03-07T13:33:41.752Z,22.53
2023-03-07T13:36:26.509Z,22.50
2023-03-07T13:38:52.854Z,22.45
2023-03-07T13:41:39.073Z,22.43
2023-03-07T13:44:11.769Z,22.41
2023-03-07T13:46:38.010Z,22.41
2023-03-07T13:49:04.334Z,22.38
2023-03-07T13:51:30.661Z,22.38
2023-03-07T13:54:00.698Z,22.41
2023-03-07T13:56:28.823Z,22.50
2023-03-07T13:59:01.510Z,22.51
2023-03-07T14:01:30.953Z,22.53
2023-03-07T14:04:19.025Z,22.54
2023-03-07T14:06:52.193Z,22.51
2023-03-07T14:09:23.185Z,22.49
2023-03-07T14:12:00.331Z,22.48
2023-03-07T14:14:39.096Z,22.46
2023-03-07T14:17:17.664Z,22.43
2023-03-07T14:19:46.918Z,22.46
2023-03-07T14:22:13.166Z,22.48
2023-03-07T14:24:39.404Z,22.51
2023-03-07T14:27:06.249Z,22.50
2023-03-07T14:29:32.879Z,22.48
2023-03-07T14:31:59.354Z,22.49
2023-03-07T14:34:32.253Z,22.45
2023-03-07T14:36:59.493Z,22.44
2023-03-07T14:39:26.446Z,22.41
2023-03-07T14:41:56.503Z,22.38
2023-03-07T14:44:39.436Z,22.34
2023-03-07T14:47:05.796Z,22.31
2023-03-07T14:49:35.894Z,22.27
2023-03-07T14:52:02.499Z,22.25
2023-03-07T14:54:30.971Z,22.22
2023-03-07T14:56:57.349Z,22.19
2023-03-07T14:59:28.918Z,22.20
2023-03-07T15:01:56.209Z,22.27
2023-03-07T15:04:24.131Z,22.37
2023-03-07T15:06:54.581Z,22.44
2023-03-07T15:09:21.205Z,22.44
2023-03-07T15:11:50.110Z,22.43
2023-03-07T15:14:24.273Z,22.43
2023-03-07T15:16:50.998Z,22.42
2023-03-07T15:19:35.621Z,22.41
2023-03-07T15:22:02.450Z,22.41
2023-03-07T15:24:31.790Z,22.37
2023-03-07T15:26:59.466Z,22.34
2023-03-07T15:29:26.560Z,22.38
2023-03-07T15:32:15.965Z,22.41
2023-03-07T15:34:42.974Z,22.41
2023-03-07T15:37:24.914Z,22.42
2023-03-07T15:39:55.162Z,22.41
2023-03-07T15:42:21.642Z,22.40
2023-03-07T15:44:55.348Z,22.40
2023-03-07T15:47:21.662Z,22.36
2023-03-07T15:49:48.766Z,22.35
2023-03-07T15:52:27.244Z,22.35
2023-03-07T15:54:53.660Z,22.32
2023-03-07T15:57:40.184Z,22.29
2023-03-07T16:00:07.607Z,22.26
2023-03-07T16:02:38.473Z,22.22
2023-03-07T16:05:20.853Z,22.23
2023-03-07T16:07:47.417Z,22.23
2023-03-07T16:10:13.753Z,22.33
2023-03-07T16:12:46.281Z,22.38
2023-03-07T16:15:16.323Z,22.43
2023-03-07T16:17:42.634Z,22.42
2023-03-07T16:20:17.843Z,22.44
2023-03-07T16:22:44.596Z,22.40
2023-03-07T16:25:13.926Z,22.38
2023-03-07T16:27:41.097Z,22.32
2023-03-07T16:30:13.856Z,22.31
2023-03-07T16:32:40.600Z,22.31
2023-03-07T16:35:13.446Z,22.31
2023-03-07T16:37:39.815Z,22.31
2023-03-07T16:40:08.265Z,22.34
2023-03-07T16:42:34.781Z,22.37
2023-03-07T16:45:01.095Z,22.38
2023-03-07T16:47:27.482Z,22.36
2023-03-07T16:49:53.791Z,22.34
2023-03-07T16:52:23.460Z,22.32
2023-03-07T16:54:49.784Z,22.31
2023-03-07T16:57:16.100Z,22.30
2023-03-07T16:59:44.388Z,22.30
2023-03-07T17:02:11.710Z,22.29
2023-03-07T17:04:38.306Z,22.28
2023-03-07T17:07:05.557Z,22.26
2023-03-07T17:09:31.895Z,22.20
2023-03-07T17:11:58.311Z,22.19
2023-03-07T17:14:24.653Z,22.15
2023-03-07T17:16:50.976Z,22.18
2023-03-07T17:19:19.724Z,22.27
2023-03-07T17:21:46.056Z,22.31
2023-03-07T17:24:12.535Z,22.31
2023-03-07T17:26:39.527Z,22.34
2023-03-07T17:29:08.101Z,22.36
2023-03-07T17:31:34.406Z,22.41
2023-03-07T17:34:00.733Z,22.47
2023-03-07T17:36:27.037Z,22.54
2023-03-07T17:38:53.394Z,22.59
2023-03-07T17:41:19.703Z,22.65
2023-03-07T17:43:46.031Z,22.78
2023-03-07T17:46:12.446Z,22.85
2023-03-07T17:48:38.836Z,23.02
2023-03-07T17:51:09.316Z,23.09
2023-03-07T17:53:35.884Z,23.15
2023-03-07T17:56:06.594Z,23.24
2023-03-07T17:58:32.901Z,23.29
2023-03-07T18:00:59.227Z,23.32
2023-03-07T18:03:25.571Z,23.33
2023-03-07T18:05:52.247Z,23.33
2023-03-07T18:08:18.574Z,23.34
2023-03-07T18:10:44.939Z,23.35
2023-03-07T18:13:11.403Z,23.41
2023-03-07T18:15:38.112Z,23.43
2023-03-07T18:18:06.286Z,23.42
2023-03-07T18:20:33.118Z,23.37
2023-03-07T18:22:59.423Z,23.40
2023-03-07T18:25:25.784Z,23.43
2023-03-07T18:27:52.093Z,23.42
2023-03-07T18:30:18.408Z,23.43
2023-03-07T18:32:45.203Z,23.45
2023-03-07T18:35:11.839Z,23.57
2023-03-07T18:37:38.880Z,23.50
2023-03-07T18:40:05.401Z,23.52
2023-03-07T18:42:32.461Z,23.45
2023-03-07T18:44:58.807Z,23.41
2023-03-07T18:47:25.125Z,23.43
2023-03-07T18:49:52.120Z,23.40
2023-03-07T18:52:18.760Z,23.40
2023-03-07T18:54:45.117Z,23.45
2023-03-07T18:57:11.427Z,23.51
2023-03-07T18:59:37.748Z,23.47
2023-03-07T19:02:04.068Z,23.49
2023-03-07T19:04:31.395Z,23.45
2023-03-07T19:06:59.606Z,23.46
2023-03-07T19:09:26.474Z,23.48
2023-03-07T19:11:52.816Z,23.48
2023-03-07T19:14:19.146Z,23.49
2023-03-07T19:16:45.511Z,23.47
2023-03-07T19:19:11.871Z,23.43
2023-03-07T19:21:38.242Z,23.41
2023-03-07T19:24:05.707Z,23.39
2023-03-07T19:26:32.271Z,23.35
2023-03-07T19:28:58.626Z,23.31
2023-03-07T19:31:28.395Z,23.28
2023-03-07T19:36:21.775Z,23.30
2023-03-07T19:38:48.750Z,23.29
2023-03-07T19:41:15.469Z,23.36
2023-03-07T19:46:08.623Z,23.32
2023-03-07T19:48:35.268Z,23.29
2023-03-07T19:51:01.582Z,23.27
2023-03-07T19:53:27.892Z,23.23
2023-03-07T19:55:54.205Z,23.23
2023-03-07T20:00:46.778Z,23.24
2023-03-07T20:03:13.574Z,23.20
2023-03-07T20:05:40.600Z,23.25
2023-03-07T20:08:06.920Z,23.32
2023-03-07T20:10:33.486Z,23.50
2023-03-07T20:12:59.806Z,23.59
2023-03-07T20:15:26.169Z,23.75
2023-03-07T20:17:52.728Z,23.84
2023-03-07T20:20:19.069Z,23.97
2023-03-07T20:22:45.411Z,24.03
2023-03-07T20:25:11.735Z,24.05
2023-03-07T20:27:38.065Z,24.09
2023-03-07T20:30:04.646Z,24.09
2023-03-07T20:32:31.399Z,24.16
2023-03-07T20:35:03.301Z,24.18
2023-03-07T20:37:32.465Z,24.18
2023-03-07T20:39:59.134Z,24.23
2023-03-07T20:42:25.654Z,24.28
2023-03-07T20:44:52.098Z,24.29
2023-03-07T20:47:18.689Z,24.30
2023-03-07T20:49:45.011Z,24.34
2023-03-07T20:52:11.323Z,24.37
2023-03-07T20:54:37.772Z,24.33
2023-03-07T20:57:04.113Z,24.42
2023-03-07T20:59:30.448Z,24.48
2023-03-07T21:01:56.863Z,24.63
2023-03-07T21:04:23.317Z,24.70
2023-03-07T21:06:49.663Z,24.65
2023-03-07T21:09:16.417Z,24.66
2023-03-07T21:11:45.234Z,24.67
2023-03-07T21:14:11.891Z,24.65
2023-03-07T21:16:38.316Z,24.61
2023-03-07T21:19:05.064Z,24.62
2023-03-07T21:21:31.786Z,24.60
2023-03-07T21:23:58.107Z,24.65
2023-03-07T21:26:25.197Z,24.68
2023-03-07T21:28:51.642Z,24.69
2023-03-07T21:31:19.024Z,24.65
2023-03-07T21:33:46.303Z,24.53
2023-03-07T21:36:14.446Z,24.50
2023-03-07T21:38:40.929Z,24.50
2023-03-07T21:41:07.295Z,24.49
2023-03-07T21:43:33.935Z,24.48
2023-03-07T21:46:06.967Z,24.46
2023-03-07T21:48:33.462Z,24.25
2023-03-07T21:51:00.919Z,24.46
2023-03-07T21:53:27.248Z,24.51
2023-03-07T21:55:54.276Z,24.49
2023-03-07T21:58:21.079Z,24.46
2023-03-07T22:00:47.731Z,24.50
2023-03-07T22:03:14.358Z,24.47
2023-03-07T22:05:40.687Z,24.50
2023-03-07T22:08:06.995Z,24.54
2023-03-07T22:10:33.443Z,24.47
2023-03-07T22:12:59.761Z,24.49
2023-03-07T22:15:26.063Z,24.46
2023-03-07T22:17:52.503Z,24.44
2023-03-07T22:20:18.830Z,24.45
2023-03-07T22:22:45.142Z,24.41
2023-03-07T22:25:11.449Z,24.37
2023-03-07T22:27:37.763Z,24.34
2023-03-07T22:30:04.686Z,24.26
2023-03-07T22:32:31.036Z,24.28
2023-03-07T22:34:57.354Z,24.25
2023-03-07T22:37:23.690Z,24.23
2023-03-07T22:39:50.027Z,24.18
2023-03-07T22:42:16.381Z,24.20
2023-03-07T22:44:42.689Z,24.18
2023-03-07T22:47:09.248Z,24.23
2023-03-07T22:49:35.736Z,24.20
2023-03-07T22:52:02.117Z,24.29
2023-03-07T22:54:28.432Z,24.19
2023-03-07T22:56:54.761Z,24.27
2023-03-07T22:59:21.099Z,24.14
2023-03-07T23:01:48.478Z,24.16
2023-03-07T23:04:14.870Z,24.22
2023-03-07T23:06:41.260Z,24.20
2023-03-07T23:09:07.694Z,24.16
2023-03-07T23:11:34.031Z,24.12
2023-03-07T23:14:00.427Z,24.13
2023-03-07T23:16:28.118Z,24.09
2023-03-07T23:18:55.213Z,24.09
2023-03-07T23:21:22.239Z,24.07
2023-03-07T23:23:48.544Z,24.03
2023-03-07T23:26:18.504Z,24.02
2023-03-07T23:28:44.825Z,24.00
2023-03-07T23:31:17.239Z,24.00
2023-03-07T23:33:43.829Z,24.07
2023-03-07T23:36:10.688Z,24.00
2023-03-07T23:38:37.025Z,23.98
2023-03-07T23:41:03.653Z,24.15
2023-03-07T23:43:29.967Z,24.23
2023-03-07T23:45:56.462Z,24.20
2023-03-07T23:48:23.229Z,24.20
2023-03-07T23:50:49.600Z,24.19
2023-03-07T23:53:15.908Z,24.17
2023-03-07T23:55:42.304Z,24.07
2023-03-07T23:58:08.636Z,24.04
